Terminal Aerodrome Forecast
Issued by NWS Cleveland, OH

Home | Current Version | Previous Version | Graphics & Text | Print | Product List | Glossary On
Versions: 1 2 3 4 5 6 7 8 9 10 11 12 13 14
000
FTUS41 KCLE 020539
TAFMFD
TAF
KMFD 020539Z 0206/0306 22005KT P6SM VCSH SCT060 BKN100
     FM021000 22008KT P6SM SCT050
     FM021700 22012G20KT P6SM SCT050
     FM030000 22012KT P6SM BKN150=

USA.gov is the U.S. government's official web portal to all federal, state and local government web resources and services.